Time;durP1;ratioP1;P1;durP2;ratioP2;P2;SDS_P1;SDS_P2;PMS_P1;PMS_P2;Temp;Humidity;BMP_temperature;BMP_pressure;BME280_temperature;BME280_humidity;BME280_pressure;Samples;Min_cycle;Max_cycle;Signal;HPM_P1;HPM_P2
2023/12/12 00:00:30;;;;;;;4.63;2.40;;;16.10;63.40;;;;;;7400038;19;19915;-72
2023/12/12 00:02:59;;;;;;;5.53;2.30;;;16.10;62.60;;;;;;7395517;19;19986;-72
2023/12/12 00:05:25;;;;;;;6.25;2.33;;;16.20;61.80;;;;;;7397468;19;19914;-71
2023/12/12 00:07:51;;;;;;;6.25;3.22;;;16.20;61.40;;;;;;7395115;19;19923;-73
2023/12/12 00:10:17;;;;;;;5.60;2.15;;;16.20;61.10;;;;;;7397637;19;20278;-72
2023/12/12 00:12:44;;;;;;;4.30;2.28;;;16.30;60.70;;;;;;7400675;19;19918;-72
2023/12/12 00:15:10;;;;;;;4.28;2.42;;;16.30;60.50;;;;;;7402189;19;19915;-72
2023/12/12 00:17:39;;;;;;;6.97;2.05;;;16.20;60.70;;;;;;7399589;19;19948;-71
2023/12/12 00:20:09;;;;;;;4.75;2.30;;;16.20;61.20;;;;;;7401395;19;19914;-72
2023/12/12 00:22:36;;;;;;;3.75;2.20;;;16.20;60.60;;;;;;7399688;19;19918;-71
2023/12/12 00:25:02;;;;;;;4.18;2.58;;;16.20;60.70;;;;;;7402490;19;19910;-72
2023/12/12 00:27:27;;;;;;;4.40;2.03;;;16.10;60.90;;;;;;7401322;19;19943;-70
2023/12/12 00:29:55;;;;;;;4.97;2.60;;;16.20;60.70;;;;;;7403401;19;19926;-71
2023/12/12 00:32:20;;;;;;;;;;;16.20;60.40;;;;;;7403215;19;19926;-71
2023/12/12 00:34:46;;;;;;;6.40;3.13;;;16.20;60.70;;;;;;7399937;19;19919;-71
2023/12/12 00:37:12;;;;;;;5.32;2.40;;;16.30;60.20;;;;;;7402145;19;19950;-73
2023/12/12 00:39:39;;;;;;;4.65;2.58;;;16.20;60.10;;;;;;7401021;19;19914;-71
2023/12/12 00:42:05;;;;;;;4.80;2.15;;;16.30;60.00;;;;;;7397363;19;19914;-70
2023/12/12 00:44:31;;;;;;;4.60;2.15;;;16.30;59.80;;;;;;7396227;19;19925;-71
2023/12/12 00:46:57;;;;;;;4.13;2.50;;;16.20;60.00;;;;;;7402502;19;19914;-72
2023/12/12 00:49:23;;;;;;;6.25;3.05;;;16.20;60.10;;;;;;7396655;19;19990;-71
2023/12/12 00:51:48;;;;;;;4.05;2.30;;;16.20;60.00;;;;;;7402589;19;19911;-71
2023/12/12 00:54:14;;;;;;;5.95;2.25;;;16.20;59.80;;;;;;7398471;19;19925;-71
2023/12/12 00:56:40;;;;;;;5.43;2.25;;;16.20;59.70;;;;;;7401577;19;19985;-71
2023/12/12 00:59:06;;;;;;;3.97;1.75;;;16.20;59.80;;;;;;7399239;19;20269;-70
2023/12/12 01:01:31;;;;;;;4.32;1.90;;;16.30;58.60;;;;;;7401173;19;19948;-71
2023/12/12 01:03:57;;;;;;;4.28;2.10;;;16.30;58.60;;;;;;7402379;19;19914;-71
2023/12/12 01:06:26;;;;;;;5.60;2.30;;;16.20;58.90;;;;;;7400507;19;19911;-72
2023/12/12 01:08:52;;;;;;;4.22;1.98;;;16.20;59.00;;;;;;7395717;19;19929;-71
2023/12/12 01:11:18;;;;;;;4.30;2.33;;;16.30;58.20;;;;;;7401823;19;19923;-71
2023/12/12 01:13:45;;;;;;;4.15;1.80;;;16.20;58.30;;;;;;7400724;19;19937;-72
2023/12/12 01:16:11;;;;;;;6.53;1.77;;;16.30;57.40;;;;;;7398713;19;19922;-71
2023/12/12 01:18:37;;;;;;;3.50;1.90;;;16.30;57.10;;;;;;7400792;19;19921;-72
2023/12/12 01:21:03;;;;;;;4.28;1.75;;;16.30;57.70;;;;;;7398231;19;20243;-71
2023/12/12 01:23:50;;;;;;;3.30;1.80;;;16.20;58.30;;;;;;7401749;19;20642;-71
2023/12/12 01:26:16;;;;;;;3.38;1.67;;;16.20;58.50;;;;;;7378992;19;20693;-71
2023/12/12 01:28:42;;;;;;;4.85;1.63;;;16.20;58.60;;;;;;7403738;19;19914;-72
2023/12/12 01:31:07;;;;;;;3.90;1.88;;;16.20;58.70;;;;;;7400419;19;20342;-71
2023/12/12 01:33:33;;;;;;;4.25;1.95;;;16.20;58.30;;;;;;7400035;19;20331;-70
2023/12/12 01:35:59;;;;;;;3.72;2.17;;;16.10;58.60;;;;;;7401164;19;19910;-72
2023/12/12 01:38:26;;;;;;;4.28;1.58;;;16.20;58.30;;;;;;7401357;19;20473;-72
2023/12/12 01:40:53;;;;;;;4.30;2.33;;;16.20;58.30;;;;;;7402281;19;20335;-71
2023/12/12 01:43:26;;;;;;;3.15;1.55;;;16.20;58.60;;;;;;7401234;19;20351;-72
2023/12/12 01:45:55;;;;;;;3.15;1.90;;;16.20;58.00;;;;;;7399659;19;19919;-71
2023/12/12 01:48:21;;;;;;;5.18;1.70;;;16.30;57.00;;;;;;7398822;19;19919;-71
2023/12/12 01:50:49;;;;;;;5.25;1.58;;;16.30;57.10;;;;;;7399336;19;19918;-71
2023/12/12 01:53:19;;;;;;;4.35;1.58;;;16.30;56.90;;;;;;7397452;19;19918;-71
2023/12/12 01:55:46;;;;;;;3.92;2.40;;;16.30;56.90;;;;;;7405068;19;19931;-71
2023/12/12 01:58:12;;;;;;;3.45;1.63;;;16.40;55.70;;;;;;7403273;19;19930;-72
2023/12/12 02:00:38;;;;;;;3.33;1.10;;;16.50;54.60;;;;;;7404535;19;19918;-71
2023/12/12 02:03:05;;;;;;;5.50;1.60;;;16.50;53.90;;;;;;7400700;19;20393;-72
2023/12/12 02:05:31;;;;;;;3.28;1.52;;;16.50;54.10;;;;;;7406406;19;19923;-72
2023/12/12 02:07:58;;;;;;;3.60;1.50;;;16.50;54.20;;;;;;7404574;19;20479;-71
2023/12/12 02:10:24;;;;;;;2.30;1.13;;;16.50;54.50;;;;;;7401177;19;20323;-71
2023/12/12 02:12:50;;;;;;;2.25;1.40;;;16.50;54.00;;;;;;7404420;19;19989;-71
2023/12/12 02:15:16;;;;;;;3.50;1.50;;;16.50;54.00;;;;;;7404689;19;20613;-71
2023/12/12 02:17:42;;;;;;;2.67;1.33;;;16.50;54.00;;;;;;7405231;19;19927;-70
2023/12/12 02:20:08;;;;;;;2.72;1.45;;;16.60;53.10;;;;;;7404865;19;19923;-70
2023/12/12 02:22:34;;;;;;;2.63;1.30;;;16.70;52.00;;;;;;7386166;19;19918;-71
2023/12/12 02:24:59;;;;;;;3.00;1.20;;;16.80;50.80;;;;;;7404991;19;19911;-71
2023/12/12 02:27:26;;;;;;;3.47;1.65;;;16.70;50.70;;;;;;7401029;19;19914;-72
2023/12/12 02:29:52;;;;;;;2.47;0.90;;;16.80;50.80;;;;;;7402594;19;20320;-72
2023/12/12 02:32:19;;;;;;;2.80;1.30;;;16.90;49.40;;;;;;7403438;19;20247;-71
2023/12/12 02:34:44;;;;;;;2.95;1.30;;;16.90;49.00;;;;;;7407346;19;19929;-72
2023/12/12 02:37:10;;;;;;;2.10;1.00;;;17.10;48.40;;;;;;7382136;19;19914;-71
2023/12/12 02:39:36;;;;;;;2.10;0.70;;;17.30;47.00;;;;;;7384492;19;19915;-71
2023/12/12 02:42:02;;;;;;;3.80;1.33;;;17.40;46.40;;;;;;7402430;19;20359;-71
2023/12/12 02:44:29;;;;;;;2.88;1.10;;;17.40;45.80;;;;;;7404751;19;19918;-74
2023/12/12 02:46:54;;;;;;;;;;;17.40;45.80;;;;;;7409217;19;20363;-71
2023/12/12 02:49:20;;;;;;;3.15;1.17;;;17.30;46.20;;;;;;7405242;19;19940;-71
2023/12/12 02:51:46;;;;;;;3.42;1.45;;;17.40;45.90;;;;;;7406893;19;19914;-71
2023/12/12 02:54:12;;;;;;;3.47;1.65;;;17.40;45.50;;;;;;7404078;19;19929;-71
2023/12/12 02:56:38;;;;;;;2.25;0.77;;;17.30;46.30;;;;;;7406807;19;19914;-71
2023/12/12 02:59:03;;;;;;;3.30;0.98;;;17.20;46.50;;;;;;7404650;19;19917;-71
2023/12/12 03:01:29;;;;;;;2.58;1.00;;;17.20;46.50;;;;;;7405708;19;20314;-71
2023/12/12 03:03:55;;;;;;;6.63;1.67;;;17.10;47.10;;;;;;7405633;19;19922;-72
2023/12/12 03:06:21;;;;;;;2.00;1.10;;;17.00;47.60;;;;;;7401172;19;19933;-70
2023/12/12 03:08:46;;;;;;;2.90;1.00;;;17.10;47.50;;;;;;7405457;19;19914;-71
2023/12/12 03:11:12;;;;;;;2.53;1.30;;;17.00;47.90;;;;;;7402726;19;19921;-71
2023/12/12 03:13:38;;;;;;;3.00;1.42;;;16.90;48.50;;;;;;7403191;19;20728;-71
2023/12/12 03:16:04;;;;;;;2.35;0.88;;;16.80;48.80;;;;;;7404172;19;20240;-71
2023/12/12 03:18:30;;;;;;;2.28;1.10;;;16.80;49.10;;;;;;7404327;19;19922;-71
2023/12/12 03:20:56;;;;;;;3.25;1.27;;;16.90;48.90;;;;;;7405194;19;19918;-71
2023/12/12 03:23:22;;;;;;;2.92;1.00;;;16.80;49.40;;;;;;7404986;19;19918;-73
2023/12/12 03:25:48;;;;;;;3.08;1.40;;;16.80;49.80;;;;;;7405516;19;19918;-71
2023/12/12 03:28:13;;;;;;;4.28;1.33;;;16.80;49.10;;;;;;7399687;19;19924;-71
2023/12/12 03:30:39;;;;;;;2.55;0.90;;;16.70;49.80;;;;;;7401524;19;19922;-71
2023/12/12 03:33:06;;;;;;;3.75;1.55;;;16.60;50.60;;;;;;7400626;19;19938;-71
2023/12/12 03:35:32;;;;;;;4.65;1.52;;;16.60;51.20;;;;;;7402281;19;20663;-71
2023/12/12 03:37:57;;;;;;;2.90;0.95;;;16.60;51.50;;;;;;7402196;19;19918;-72
2023/12/12 03:40:24;;;;;;;3.13;1.50;;;16.50;51.90;;;;;;7402347;19;19919;-71
2023/12/12 03:42:50;;;;;;;3.63;0.95;;;16.40;51.90;;;;;;7403146;19;20335;-72
2023/12/12 03:45:16;;;;;;;3.50;1.10;;;16.60;51.20;;;;;;7402947;19;19926;-70
2023/12/12 03:47:42;;;;;;;2.97;1.30;;;16.70;50.10;;;;;;7403447;19;19918;-71
2023/12/12 03:50:08;;;;;;;2.70;1.25;;;16.70;49.80;;;;;;7403719;19;19922;-71
2023/12/12 03:52:33;;;;;;;2.47;1.40;;;16.80;48.90;;;;;;7403605;19;19962;-71
2023/12/12 03:54:59;;;;;;;2.72;1.17;;;16.80;48.20;;;;;;7404394;19;20443;-72
2023/12/12 03:57:25;;;;;;;3.38;1.15;;;16.90;47.40;;;;;;7402399;19;19918;-71
2023/12/12 03:59:51;;;;;;;2.70;0.80;;;17.00;47.30;;;;;;7404987;19;19918;-71
2023/12/12 04:02:17;;;;;;;4.22;1.17;;;16.90;47.20;;;;;;7399938;19;19917;-71
2023/12/12 04:04:43;;;;;;;2.50;1.65;;;17.20;46.20;;;;;;7402465;19;19922;-71
2023/12/12 04:07:09;;;;;;;2.38;1.17;;;17.10;46.00;;;;;;7398499;19;19987;-72
2023/12/12 04:09:34;;;;;;;1.42;0.63;;;17.10;45.60;;;;;;7400802;19;19930;-72
2023/12/12 04:12:00;;;;;;;3.35;1.20;;;17.30;44.90;;;;;;7402009;19;19938;-72
2023/12/12 04:14:26;;;;;;;2.70;0.90;;;17.30;44.30;;;;;;7400705;19;20339;-71
2023/12/12 04:16:52;;;;;;;3.03;1.30;;;17.40;43.60;;;;;;7402571;19;19919;-72
2023/12/12 04:19:18;;;;;;;2.33;1.00;;;17.40;43.50;;;;;;7401681;19;19938;-70
2023/12/12 04:21:44;;;;;;;2.88;1.20;;;17.40;43.00;;;;;;7398966;19;20031;-71
2023/12/12 04:24:09;;;;;;;2.85;1.30;;;17.30;43.30;;;;;;7399635;19;19926;-71
2023/12/12 04:26:35;;;;;;;3.38;0.80;;;17.60;41.70;;;;;;7400196;19;19942;-71
2023/12/12 04:29:03;;;;;;;2.40;0.80;;;17.70;40.90;;;;;;7401966;19;19990;-71
2023/12/12 04:31:30;;;;;;;2.25;1.52;;;17.60;41.20;;;;;;7400872;19;19982;-71
2023/12/12 04:33:56;;;;;;;2.33;1.00;;;17.70;40.50;;;;;;7401684;19;19918;-73
2023/12/12 04:36:22;;;;;;;2.45;0.88;;;17.70;40.30;;;;;;7396829;19;19938;-73
2023/12/12 04:38:48;;;;;;;3.40;1.50;;;17.70;39.80;;;;;;7400199;19;19956;-71
2023/12/12 04:41:14;;;;;;;1.70;0.90;;;17.60;40.20;;;;;;7399231;19;19974;-71
2023/12/12 04:43:40;;;;;;;2.30;0.80;;;17.50;40.20;;;;;;7400619;19;19952;-71
2023/12/12 04:46:06;;;;;;;2.08;0.90;;;17.60;39.50;;;;;;7400213;19;21022;-71
2023/12/12 04:48:32;;;;;;;2.95;1.20;;;17.60;39.30;;;;;;7399213;19;19923;-71
2023/12/12 04:51:00;;;;;;;2.80;1.40;;;17.60;39.30;;;;;;7398219;19;19921;-71
2023/12/12 04:53:25;;;;;;;3.40;1.35;;;17.60;38.90;;;;;;7397964;19;19930;-71
2023/12/12 04:55:51;;;;;;;2.75;1.15;;;17.60;39.10;;;;;;7397764;19;19914;-71
2023/12/12 04:58:17;;;;;;;2.38;0.85;;;17.70;38.40;;;;;;7399422;19;19919;-72
2023/12/12 05:00:43;;;;;;;2.35;0.98;;;17.70;38.40;;;;;;7397332;19;20252;-72
2023/12/12 05:03:08;;;;;;;2.92;1.30;;;17.50;38.70;;;;;;7397405;19;19922;-70
2023/12/12 05:05:34;;;;;;;4.57;1.58;;;17.50;39.00;;;;;;7398221;19;20386;-72
2023/12/12 05:08:00;;;;;;;2.65;0.98;;;17.40;39.30;;;;;;7400970;19;20266;-71
2023/12/12 05:10:26;;;;;;;3.60;1.20;;;17.50;39.00;;;;;;7397326;19;19922;-71
2023/12/12 05:12:52;;;;;;;3.15;0.90;;;17.50;39.00;;;;;;7397459;19;19926;-72
2023/12/12 05:15:17;;;;;;;3.13;1.50;;;17.50;38.40;;;;;;7399277;19;19926;-73
2023/12/12 05:17:43;;;;;;;2.92;1.27;;;17.50;38.20;;;;;;7402198;19;19922;-73
2023/12/12 05:20:11;;;;;;;2.13;1.20;;;17.60;37.70;;;;;;7398428;19;19918;-72
2023/12/12 05:22:37;;;;;;;2.83;1.15;;;17.70;37.40;;;;;;7399509;19;19918;-73
2023/12/12 05:25:05;;;;;;;2.75;1.15;;;17.70;36.90;;;;;;7399919;19;19919;-72
2023/12/12 05:27:31;;;;;;;1.77;0.63;;;17.70;36.60;;;;;;7400616;19;19923;-70
2023/12/12 05:29:57;;;;;;;4.45;1.73;;;17.70;36.10;;;;;;7406751;19;19958;-71
2023/12/12 05:32:22;;;;;;;5.28;2.25;;;17.90;35.60;;;;;;7401582;19;19926;-71
2023/12/12 05:34:48;;;;;;;4.57;2.00;;;17.70;35.50;;;;;;7402815;19;19935;-71
2023/12/12 05:37:14;;;;;;;2.50;0.90;;;17.80;35.10;;;;;;7402404;19;20340;-71
2023/12/12 05:39:40;;;;;;;5.50;1.60;;;17.90;34.80;;;;;;7407154;19;19914;-71
2023/12/12 05:42:06;;;;;;;3.53;1.60;;;17.90;34.90;;;;;;7405418;19;19918;-71
2023/12/12 05:44:32;;;;;;;2.00;0.90;;;17.80;34.80;;;;;;7407123;19;19930;-72
2023/12/12 05:46:59;;;;;;;3.50;1.40;;;18.00;34.40;;;;;;7404403;19;19922;-72
2023/12/12 05:49:25;;;;;;;2.72;1.02;;;17.90;34.30;;;;;;7404595;19;20283;-71
2023/12/12 05:51:51;;;;;;;7.43;1.88;;;17.90;34.20;;;;;;7404142;19;19918;-72
2023/12/12 05:54:17;;;;;;;7.63;2.00;;;17.90;34.10;;;;;;7408294;19;19915;-72
2023/12/12 05:56:45;;;;;;;3.33;1.35;;;17.80;34.50;;;;;;7406991;19;19910;-71
2023/12/12 05:59:14;;;;;;;6.68;1.95;;;17.80;34.30;;;;;;7406490;19;19915;-72
2023/12/12 06:01:41;;;;;;;4.50;1.38;;;17.90;34.10;;;;;;7406032;19;19921;-71
2023/12/12 06:04:11;;;;;;;4.10;1.25;;;18.00;33.90;;;;;;7406576;19;19938;-72
2023/12/12 06:06:43;;;;;;;2.78;0.70;;;17.90;34.00;;;;;;7404319;19;19906;-71
2023/12/12 06:09:13;;;;;;;3.45;1.48;;;17.90;34.30;;;;;;7403583;19;19923;-70
2023/12/12 06:11:39;;;;;;;3.60;1.27;;;17.70;34.50;;;;;;7404676;19;20386;-71
2023/12/12 06:14:05;;;;;;;6.32;2.13;;;17.80;34.70;;;;;;7403566;19;19922;-73
2023/12/12 06:16:32;;;;;;;4.68;1.00;;;17.70;35.00;;;;;;7407313;19;19999;-71
2023/12/12 06:18:58;;;;;;;4.63;1.35;;;17.70;35.30;;;;;;7406976;19;19926;-72
2023/12/12 06:21:24;;;;;;;2.55;1.10;;;17.70;35.40;;;;;;7406715;19;20613;-71
2023/12/12 06:23:50;;;;;;;2.38;1.27;;;17.70;35.60;;;;;;7406204;19;19926;-71
2023/12/12 06:26:16;;;;;;;2.55;1.05;;;17.70;35.90;;;;;;7407134;19;20260;-70
2023/12/12 06:28:41;;;;;;;2.20;0.95;;;17.60;36.20;;;;;;7406502;19;19922;-72
2023/12/12 06:31:08;;;;;;;3.20;1.33;;;17.60;36.30;;;;;;7380152;19;19942;-72
2023/12/12 06:33:34;;;;;;;3.35;1.00;;;17.60;36.70;;;;;;7406939;19;19922;-71
2023/12/12 06:35:59;;;;;;;2.30;1.00;;;17.50;37.00;;;;;;7403515;19;19917;-70
2023/12/12 06:38:26;;;;;;;4.03;1.70;;;17.40;37.40;;;;;;7406080;19;19974;-71
2023/12/12 06:40:51;;;;;;;2.85;0.93;;;17.40;37.70;;;;;;7405340;19;19922;-71
2023/12/12 06:43:18;;;;;;;3.65;1.17;;;17.40;38.10;;;;;;7402651;19;19919;-72
2023/12/12 06:45:44;;;;;;;3.42;1.40;;;17.30;38.50;;;;;;7405721;19;19936;-72
2023/12/12 06:48:12;;;;;;;2.72;1.25;;;17.30;38.80;;;;;;7406348;19;19937;-71
2023/12/12 06:50:37;;;;;;;5.47;1.27;;;17.20;39.30;;;;;;7408752;19;19938;-71
2023/12/12 06:53:03;;;;;;;4.00;0.90;;;17.10;39.70;;;;;;7404550;19;19967;-71
2023/12/12 06:55:29;;;;;;;3.47;1.00;;;17.20;39.80;;;;;;7405581;19;19918;-71
2023/12/12 06:57:55;;;;;;;4.57;1.40;;;17.10;40.40;;;;;;7406928;19;19918;-72
2023/12/12 07:00:21;;;;;;;3.08;1.05;;;17.10;40.50;;;;;;7403879;19;19919;-72
2023/12/12 07:02:47;;;;;;;2.83;1.13;;;17.00;40.60;;;;;;7408925;19;19955;-72
2023/12/12 07:05:15;;;;;;;2.75;1.10;;;17.00;40.90;;;;;;7402545;19;19931;-72
2023/12/12 07:07:40;;;;;;;3.55;1.02;;;17.00;41.10;;;;;;7404896;19;20353;-71
2023/12/12 07:10:07;;;;;;;3.28;1.48;;;16.90;41.20;;;;;;7401241;19;19923;-72
2023/12/12 07:12:33;;;;;;;2.17;1.10;;;16.90;41.50;;;;;;7404814;19;20017;-71
2023/12/12 07:14:59;;;;;;;1.85;0.85;;;16.80;42.00;;;;;;7406142;19;19915;-71
2023/12/12 07:17:24;;;;;;;2.95;1.38;;;16.80;42.30;;;;;;7404907;19;19917;-71
2023/12/12 07:19:50;;;;;;;3.83;1.30;;;16.80;42.70;;;;;;7402647;19;19927;-72
2023/12/12 07:22:16;;;;;;;2.05;1.10;;;16.80;42.80;;;;;;7383291;19;19942;-72
2023/12/12 07:24:42;;;;;;;1.92;0.93;;;16.80;42.60;;;;;;7404778;19;19926;-72
2023/12/12 07:27:10;;;;;;;5.43;1.50;;;16.80;42.90;;;;;;7382728;19;19939;-74
2023/12/12 07:29:36;;;;;;;3.05;1.10;;;16.80;42.90;;;;;;7404924;19;20342;-71
2023/12/12 07:32:03;;;;;;;3.38;1.27;;;16.80;43.00;;;;;;7404614;19;19915;-72
2023/12/12 07:34:29;;;;;;;4.97;1.27;;;16.80;43.00;;;;;;7402739;19;19978;-72
2023/12/12 07:36:55;;;;;;;4.25;0.90;;;16.80;42.50;;;;;;7404327;19;19935;-73
2023/12/12 07:39:21;;;;;;;3.15;1.60;;;16.90;41.80;;;;;;7376476;19;19923;-72
2023/12/12 07:41:47;;;;;;;3.17;1.48;;;16.90;41.80;;;;;;7404364;19;19922;-71
2023/12/12 07:44:13;;;;;;;3.30;1.58;;;16.90;41.80;;;;;;7401354;19;19925;-72
2023/12/12 07:46:39;;;;;;;3.78;1.30;;;17.00;41.70;;;;;;7405705;19;19918;-71
2023/12/12 07:49:06;;;;;;;2.13;0.80;;;17.00;41.60;;;;;;7400765;19;19990;-71
2023/12/12 07:51:32;;;;;;;3.00;1.30;;;17.10;40.90;;;;;;7402239;19;19914;-72
2023/12/12 07:53:59;;;;;;;4.00;1.42;;;17.20;40.20;;;;;;7405137;19;19947;-71
2023/12/12 07:56:25;;;;;;;2.47;1.00;;;17.20;39.50;;;;;;7402956;19;20315;-72
2023/12/12 07:58:51;;;;;;;3.05;1.35;;;17.40;39.00;;;;;;7402792;19;19974;-73
2023/12/12 08:01:17;;;;;;;4.35;1.35;;;17.50;38.10;;;;;;7403220;19;19928;-73
2023/12/12 08:03:43;;;;;;;2.45;1.20;;;17.50;38.00;;;;;;7381436;19;19910;-71
2023/12/12 08:06:09;;;;;;;3.53;1.15;;;17.50;38.10;;;;;;7399047;19;20407;-71
2023/12/12 08:08:36;;;;;;;2.65;0.85;;;17.50;38.00;;;;;;7402572;19;19906;-72
2023/12/12 08:11:02;;;;;;;4.18;1.05;;;17.50;37.80;;;;;;7403178;19;19922;-71
2023/12/12 08:13:28;;;;;;;4.88;1.35;;;17.60;37.50;;;;;;7404679;19;19990;-72
2023/12/12 08:15:54;;;;;;;3.22;1.40;;;17.60;37.70;;;;;;7402287;19;19933;-72
2023/12/12 08:18:19;;;;;;;2.97;1.02;;;17.60;37.50;;;;;;7389617;19;20714;-72
2023/12/12 08:20:45;;;;;;;2.60;0.95;;;17.60;37.60;;;;;;7337980;19;19925;-72
2023/12/12 08:23:12;;;;;;;3.42;1.30;;;17.60;37.30;;;;;;7368868;19;19982;-71
2023/12/12 08:25:38;;;;;;;3.15;1.25;;;17.60;37.20;;;;;;7402918;19;20351;-72
2023/12/12 08:28:04;;;;;;;3.97;1.27;;;17.60;37.40;;;;;;7400539;19;19921;-73
2023/12/12 08:30:30;;;;;;;4.40;1.25;;;17.60;37.40;;;;;;7379288;19;19935;-72
2023/12/12 08:32:56;;;;;;;2.45;0.80;;;17.60;37.60;;;;;;7402637;19;19943;-72
2023/12/12 08:35:22;;;;;;;3.50;0.93;;;17.60;37.60;;;;;;7398809;19;20094;-73
2023/12/12 08:37:47;;;;;;;2.45;1.05;;;17.60;37.70;;;;;;7402742;19;19927;-72
2023/12/12 08:40:13;;;;;;;2.75;1.05;;;17.60;37.60;;;;;;7379139;19;20020;-72
2023/12/12 08:42:39;;;;;;;3.63;1.30;;;17.60;37.70;;;;;;7380921;19;20271;-72
2023/12/12 08:45:05;;;;;;;4.20;1.15;;;17.60;37.60;;;;;;7393496;19;19914;-71
2023/12/12 08:47:31;;;;;;;4.78;1.42;;;17.60;38.10;;;;;;7384618;19;19949;-72
2023/12/12 08:49:59;;;;;;;2.88;1.38;;;17.60;37.80;;;;;;7383037;19;19930;-71
2023/12/12 08:52:26;;;;;;;2.63;1.33;;;17.60;37.90;;;;;;7374747;19;20339;-71
2023/12/12 08:54:52;;;;;;;2.38;0.88;;;17.60;37.70;;;;;;7378826;19;19925;-71
2023/12/12 08:57:19;;;;;;;2.20;1.00;;;17.50;37.80;;;;;;7396145;19;19986;-71
2023/12/12 08:59:45;;;;;;;4.85;1.67;;;17.60;38.00;;;;;;7378242;19;19918;-72
2023/12/12 09:02:11;;;;;;;3.80;1.73;;;17.50;38.10;;;;;;7398660;19;19929;-73
2023/12/12 09:04:37;;;;;;;7.75;2.20;;;17.50;38.50;;;;;;7392219;19;19914;-72
2023/12/12 09:07:05;;;;;;;5.10;1.50;;;17.40;38.60;;;;;;7400947;19;19922;-72
2023/12/12 09:09:31;;;;;;;3.65;1.55;;;17.40;38.80;;;;;;7373282;19;19914;-72
2023/12/12 09:12:00;;;;;;;5.15;1.15;;;17.50;39.00;;;;;;7402036;19;20958;-73
2023/12/12 09:14:27;;;;;;;6.05;1.75;;;17.50;38.90;;;;;;7395302;19;20260;-73
2023/12/12 09:16:53;;;;;;;3.88;2.13;;;17.40;38.90;;;;;;7392959;19;19915;-73
2023/12/12 09:19:19;;;;;;;4.75;1.50;;;17.40;39.20;;;;;;7393338;19;19970;-72
2023/12/12 09:21:45;;;;;;;5.57;1.98;;;17.40;39.60;;;;;;7394320;19;19944;-73
2023/12/12 09:24:11;;;;;;;8.15;2.17;;;17.40;39.70;;;;;;7390705;19;20192;-73
2023/12/12 09:26:38;;;;;;;3.53;1.20;;;17.40;40.00;;;;;;7391704;19;19921;-73
2023/12/12 09:29:04;;;;;;;3.58;1.33;;;17.40;40.00;;;;;;7396100;19;20263;-73
2023/12/12 09:31:30;;;;;;;4.13;1.77;;;17.40;40.00;;;;;;7390728;19;20299;-71
2023/12/12 09:33:56;;;;;;;4.57;1.75;;;17.40;40.00;;;;;;7393647;19;19950;-72
2023/12/12 09:36:22;;;;;;;3.97;2.13;;;17.40;40.20;;;;;;7393324;19;19947;-72
2023/12/12 09:38:48;;;;;;;7.00;1.98;;;17.40;40.10;;;;;;7398267;19;20343;-73
2023/12/12 09:41:21;;;;;;;8.98;2.20;;;17.40;40.10;;;;;;7396041;19;19932;-71
2023/12/12 09:43:48;;;;;;;6.38;1.48;;;17.50;39.90;;;;;;7389835;19;19927;-73
2023/12/12 09:46:16;;;;;;;4.95;1.38;;;17.60;39.40;;;;;;7392680;19;19925;-72
2023/12/12 09:48:47;;;;;;;4.15;1.65;;;17.70;39.10;;;;;;7398858;19;19910;-72
2023/12/12 09:51:14;;;;;;;3.92;1.90;;;17.70;38.70;;;;;;7399266;19;19915;-71
2023/12/12 09:53:47;;;;;;;5.22;1.58;;;17.80;38.40;;;;;;7401698;19;19921;-72
2023/12/12 09:56:13;;;;;;;;;;;17.80;38.40;;;;;;7398463;19;19923;-73
2023/12/12 09:58:39;;;;;;;3.90;2.05;;;17.80;38.00;;;;;;7400580;19;20661;-71
2023/12/12 10:01:06;;;;;;;4.25;1.80;;;17.90;38.00;;;;;;7399657;19;19922;-71
2023/12/12 10:03:32;;;;;;;3.78;1.50;;;17.90;38.00;;;;;;7401066;19;19930;-72
2023/12/12 10:06:03;;;;;;;3.30;1.73;;;17.90;37.80;;;;;;7399763;19;20409;-71
2023/12/12 10:08:29;;;;;;;3.80;2.00;;;17.80;38.20;;;;;;7399870;19;19914;-72
2023/12/12 10:10:55;;;;;;;3.30;1.80;;;17.80;38.20;;;;;;7403625;19;19952;-72
2023/12/12 10:13:20;;;;;;;5.35;1.58;;;17.90;38.30;;;;;;7399512;19;19926;-72
2023/12/12 10:15:47;;;;;;;5.68;1.73;;;17.80;38.40;;;;;;7403940;19;19923;-73
2023/12/12 10:18:14;;;;;;;;;;;17.80;38.50;;;;;;7407936;19;19930;-72
2023/12/12 10:20:40;;;;;;;3.95;1.58;;;17.90;38.40;;;;;;7406629;19;20327;-72
2023/12/12 10:23:06;;;;;;;5.32;1.70;;;18.00;38.30;;;;;;7401949;19;19936;-72
2023/12/12 10:25:34;;;;;;;5.28;1.42;;;18.00;37.90;;;;;;7401376;19;19914;-73
2023/12/12 10:28:00;;;;;;;5.63;1.80;;;18.00;38.10;;;;;;7402481;19;20404;-72
2023/12/12 10:30:27;;;;;;;4.18;1.95;;;18.00;37.80;;;;;;7400530;19;19923;-71
2023/12/12 10:32:54;;;;;;;3.97;1.52;;;18.00;37.90;;;;;;7399175;19;19925;-72
2023/12/12 10:35:24;;;;;;;5.53;2.00;;;18.00;38.00;;;;;;7407174;19;19938;-72
2023/12/12 10:37:50;;;;;;;4.40;2.10;;;18.00;38.30;;;;;;7405651;19;20016;-72
2023/12/12 10:40:21;;;;;;;5.05;1.95;;;18.00;38.00;;;;;;7401563;19;19923;-72
2023/12/12 10:42:48;;;;;;;8.63;1.90;;;18.10;37.20;;;;;;7400793;19;19919;-72
2023/12/12 10:45:16;;;;;;;6.57;1.70;;;18.10;37.30;;;;;;7401655;19;19938;-73
2023/12/12 10:47:46;;;;;;;6.38;1.45;;;18.20;37.30;;;;;;7404186;19;19953;-73
2023/12/12 10:50:13;;;;;;;6.43;1.95;;;18.30;36.90;;;;;;7405445;19;19942;-72
2023/12/12 10:52:40;;;;;;;6.32;1.60;;;18.20;37.20;;;;;;7402052;19;19934;-72
2023/12/12 10:55:09;;;;;;;5.63;2.20;;;18.20;37.00;;;;;;7395463;19;19932;-72
2023/12/12 10:57:38;;;;;;;4.80;1.83;;;18.30;36.70;;;;;;7405275;19;20257;-73
2023/12/12 11:00:11;;;;;;;3.90;1.98;;;18.30;36.60;;;;;;7402428;19;19943;-71
2023/12/12 11:02:41;;;;;;;4.78;1.70;;;18.30;36.50;;;;;;7404364;19;19919;-72
2023/12/12 11:05:14;;;;;;;6.95;2.30;;;18.40;36.60;;;;;;7404516;19;19946;-72
2023/12/12 11:07:42;;;;;;;4.05;1.63;;;18.40;36.60;;;;;;7395731;19;19942;-71
2023/12/12 11:10:11;;;;;;;4.30;1.60;;;18.40;37.00;;;;;;7395832;19;19917;-71
2023/12/12 11:12:48;;;;;;;5.43;2.08;;;18.40;36.50;;;;;;7403263;19;19917;-72
2023/12/12 11:15:16;;;;;;;2.95;1.40;;;18.40;36.20;;;;;;7399420;19;20307;-73
2023/12/12 11:17:45;;;;;;;4.82;1.67;;;18.60;35.80;;;;;;7394967;19;19918;-72
2023/12/12 11:20:16;;;;;;;5.85;1.77;;;18.70;35.40;;;;;;7401225;19;19978;-73
2023/12/12 11:22:48;;;;;;;4.40;2.05;;;18.60;35.40;;;;;;7390219;19;19919;-73
2023/12/12 11:25:17;;;;;;;4.38;2.05;;;18.60;35.50;;;;;;7390583;19;19964;-72
2023/12/12 11:27:50;;;;;;;4.07;1.73;;;18.60;35.40;;;;;;7396550;19;19923;-72
2023/12/12 11:30:18;;;;;;;3.95;1.50;;;18.50;35.40;;;;;;7398024;19;20261;-73
2023/12/12 11:32:45;;;;;;;3.85;1.98;;;18.60;35.10;;;;;;7398120;19;19926;-74
2023/12/12 11:35:31;;;;;;;5.90;1.75;;;18.50;35.60;;;;;;7398329;19;20766;-74
2023/12/12 11:38:05;;;;;;;4.75;1.73;;;18.40;35.80;;;;;;7402796;19;19922;-73
2023/12/12 11:40:33;;;;;;;4.00;1.55;;;18.50;35.20;;;;;;7401678;19;19922;-71
2023/12/12 11:43:18;;;;;;;3.72;1.70;;;18.50;35.50;;;;;;7396444;19;19914;-72
2023/12/12 11:45:45;;;;;;;4.65;2.10;;;18.60;35.20;;;;;;7397486;19;20275;-71
2023/12/12 11:48:10;;;;;;;6.22;1.70;;;18.60;35.50;;;;;;7396614;19;19922;-71
2023/12/12 11:50:36;;;;;;;6.72;2.47;;;18.60;35.30;;;;;;7399175;19;19927;-73
2023/12/12 11:53:03;;;;;;;4.97;1.92;;;18.60;35.30;;;;;;7401353;19;19922;-72
2023/12/12 11:55:32;;;;;;;;;;;18.60;35.50;;;;;;7377752;19;20552;-73
2023/12/12 11:58:05;;;;;;;4.50;1.85;;;18.60;35.40;;;;;;7399300;19;19923;-74
2023/12/12 12:00:43;;;;;;;4.57;2.20;;;18.50;35.70;;;;;;7390165;19;19914;-73
2023/12/12 12:03:09;;;;;;;4.22;2.03;;;18.40;35.80;;;;;;7360356;19;19922;-72
2023/12/12 12:05:35;;;;;;;3.97;1.70;;;18.40;36.10;;;;;;7405863;19;19929;-72
2023/12/12 12:08:02;;;;;;;5.15;1.80;;;18.50;35.80;;;;;;7404146;19;20236;-73
2023/12/12 12:10:28;;;;;;;9.43;2.58;;;18.50;35.90;;;;;;7404087;19;20349;-72
2023/12/12 12:12:58;;;;;;;4.70;1.80;;;18.60;35.60;;;;;;7407197;19;19939;-72
2023/12/12 12:15:29;;;;;;;4.68;2.42;;;18.60;35.10;;;;;;7405767;19;19935;-73
2023/12/12 12:17:59;;;;;;;5.20;2.28;;;18.60;35.10;;;;;;7406278;19;19922;-73
2023/12/12 12:20:26;;;;;;;6.85;2.38;;;18.70;35.00;;;;;;7402396;19;19946;-72
2023/12/12 12:22:52;;;;;;;4.85;2.20;;;18.80;35.90;;;;;;7402981;19;19914;-74
2023/12/12 12:25:22;;;;;;;7.95;1.52;;;18.70;35.00;;;;;;7401061;19;20476;-73
2023/12/12 12:27:53;;;;;;;6.40;2.40;;;18.80;34.70;;;;;;7404938;19;19941;-73
2023/12/12 12:30:20;;;;;;;4.95;2.13;;;18.80;34.90;;;;;;7403378;19;19918;-71
2023/12/12 12:33:04;;;;;;;4.95;2.42;;;18.80;34.90;;;;;;7405376;19;19914;-74
2023/12/12 12:35:30;;;;;;;6.57;2.20;;;18.70;34.80;;;;;;7402840;19;19926;-75
2023/12/12 12:37:57;;;;;;;6.13;2.10;;;18.90;34.30;;;;;;7404889;19;20269;-74
2023/12/12 12:40:33;;;;;;;4.40;2.05;;;18.90;34.20;;;;;;7404698;19;19934;-73
2023/12/12 12:43:00;;;;;;;5.63;1.92;;;19.00;34.10;;;;;;7404674;19;19922;-71
2023/12/12 12:45:26;;;;;;;3.28;1.90;;;19.00;33.80;;;;;;7401523;19;19935;-72